Time;durP1;ratioP1;P1;durP2;ratioP2;P2;SDS_P1;SDS_P2;PMS_P1;PMS_P2;Temp;Humidity;BMP_temperature;BMP_pressure;BME280_temperature;BME280_humidity;BME280_pressure;Samples;Min_cycle;Max_cycle;Signal;HPM_P1;HPM_P2
2023/07/10 00:02:09;;;;;;;1.77;1.65;;;;;;;24.24;68.69;101339.31;5232382;28;20410;-87
2023/07/10 00:04:59;;;;;;;1.80;1.33;;;;;;;24.36;67.45;101341.03;5230225;28;20073;-88
2023/07/10 00:07:50;;;;;;;3.03;1.13;;;;;;;24.37;67.06;101350.78;5243670;28;20551;-87
2023/07/10 00:10:42;;;;;;;1.08;1.02;;;;;;;24.39;66.75;101348.00;5235037;28;20123;-88
2023/07/10 00:13:33;;;;;;;0.98;0.98;;;;;;;24.31;66.92;101356.63;5230401;28;20024;-87
2023/07/10 00:16:25;;;;;;;3.00;1.35;;;;;;;24.34;66.98;101353.69;5263673;28;20036;-87
2023/07/10 00:19:16;;;;;;;0.95;0.93;;;;;;;24.33;66.89;101360.06;5237525;28;20112;-87
2023/07/10 00:22:07;;;;;;;0.98;0.90;;;;;;;24.22;67.26;101349.28;5253366;28;20518;-87
2023/07/10 00:24:57;;;;;;;0.88;0.88;;;;;;;24.35;66.75;101356.28;5236299;28;20093;-89
2023/07/10 00:27:49;;;;;;;0.98;0.98;;;;;;;24.33;67.01;101360.06;5238746;28;20054;-87
2023/07/10 00:30:40;;;;;;;1.65;1.38;;;;;;;23.95;69.71;101361.06;5236961;28;20036;-87
2023/07/10 00:33:31;;;;;;;1.90;1.60;;;;;;;24.24;66.68;101355.38;5238687;28;20018;-87
2023/07/10 00:36:33;;;;;;;0.68;0.68;;;;;;;24.19;67.92;101359.25;5265892;28;20061;-87
2023/07/10 00:39:30;;;;;;;2.65;1.65;;;;;;;24.26;66.85;101358.78;5252394;28;20035;-87
2023/07/10 00:42:23;;;;;;;0.70;0.70;;;;;;;24.29;67.17;101363.94;5240352;28;20027;-87
2023/07/10 00:45:15;;;;;;;3.10;1.88;;;;;;;24.17;68.60;101360.34;5236429;28;20089;-87
2023/07/10 00:48:27;;;;;;;1.53;1.43;;;;;;;23.93;68.83;101362.97;5257379;28;20024;-87
2023/07/10 00:51:30;;;;;;;2.40;1.42;;;;;;;23.77;69.69;101358.75;5255834;28;20396;-87
2023/07/10 00:54:31;;;;;;;1.10;1.10;;;;;;;23.76;69.64;101362.38;5269715;28;20036;-87
2023/07/10 00:57:33;;;;;;;1.98;1.67;;;;;;;23.34;72.89;101361.88;5238992;28;20032;-87
2023/07/10 01:00:24;;;;;;;2.42;1.10;;;;;;;23.61;70.29;101363.50;5252810;28;20058;-87
2023/07/10 01:03:15;;;;;;;1.95;1.20;;;;;;;23.21;72.26;101359.22;5241900;28;20032;-87
2023/07/10 01:06:14;;;;;;;1.00;0.82;;;;;;;23.50;70.01;101359.81;5242816;28;20036;-87
2023/07/10 01:09:08;;;;;;;1.67;1.17;;;;;;;23.25;71.46;101358.88;5269710;28;20035;-88
2023/07/10 01:11:58;;;;;;;0.80;0.65;;;;;;;23.62;68.79;101365.22;5237891;28;20105;-89
2023/07/10 01:14:49;;;;;;;1.80;1.70;;;;;;;23.44;70.64;101367.41;5255485;28;20032;-87
2023/07/10 01:17:40;;;;;;;4.03;2.47;;;;;;;23.20;71.34;101361.00;5244062;28;20086;-87
2023/07/10 01:20:38;;;;;;;0.93;0.80;;;;;;;23.49;68.93;101366.13;5235909;28;20027;-88
2023/07/10 01:23:29;;;;;;;1.10;1.00;;;;;;;23.43;69.95;101366.53;5261577;28;20339;-87
2023/07/10 01:26:20;;;;;;;1.70;1.60;;;;;;;23.48;69.22;101368.88;5270460;28;20054;-88
2023/07/10 01:29:23;;;;;;;0.68;0.68;;;;;;;23.52;67.66;101360.53;5247480;28;20028;-86
2023/07/10 01:32:19;;;;;;;2.00;1.65;;;;;;;23.58;67.13;101354.75;5234363;28;20028;-87
2023/07/10 01:35:14;;;;;;;1.77;1.67;;;;;;;23.63;66.94;101364.25;5240684;28;20058;-87
2023/07/10 01:38:05;;;;;;;2.20;1.85;;;;;;;23.58;67.50;101359.22;5236872;28;20127;-87
2023/07/10 01:40:59;;;;;;;1.38;1.27;;;;;;;23.60;67.66;101354.63;5251067;28;20123;-86
2023/07/10 01:43:50;;;;;;;1.88;1.40;;;;;;;23.62;66.90;101359.88;5248374;28;20033;-86
2023/07/10 01:46:41;;;;;;;3.35;2.45;;;;;;;23.65;67.39;101343.59;5263393;28;20035;-88
2023/07/10 01:49:37;;;;;;;2.53;2.15;;;;;;;23.60;66.28;101338.56;5237134;28;20040;-86
2023/07/10 01:52:28;;;;;;;1.00;0.98;;;;;;;23.61;66.83;101339.41;5247529;28;20024;-86
2023/07/10 01:55:19;;;;;;;3.25;0.82;;;;;;;23.58;68.33;101360.09;5235419;28;20059;-87
2023/07/10 01:58:12;;;;;;;1.42;1.02;;;;;;;23.63;67.73;101373.16;5228251;28;20024;-86
2023/07/10 02:01:02;;;;;;;9.63;1.83;;;;;;;23.59;68.17;101379.69;5233865;28;20040;-86
2023/07/10 02:03:53;;;;;;;1.65;1.15;;;;;;;23.59;67.52;101387.72;5231587;28;20047;-86
2023/07/10 02:06:44;;;;;;;0.85;0.85;;;;;;;23.58;67.73;101399.41;5243412;28;20024;-86
2023/07/10 02:09:35;;;;;;;1.70;1.42;;;;;;;23.38;67.94;101400.84;5239321;28;20031;-86
2023/07/10 02:12:26;;;;;;;5.10;2.40;;;;;;;23.24;68.48;101400.00;5240192;28;20463;-86
2023/07/10 02:15:17;;;;;;;3.28;1.40;;;;;;;23.27;67.91;101394.41;5248823;28;20059;-85
2023/07/10 02:18:08;;;;;;;2.22;1.33;;;;;;;23.06;68.62;101395.88;5263805;28;20035;-87
2023/07/10 02:20:59;;;;;;;3.20;1.55;;;;;;;23.00;68.61;101401.69;5227438;28;20062;-86
2023/07/10 02:23:49;;;;;;;2.67;1.33;;;;;;;23.01;69.78;101400.72;5231058;28;20051;-88
2023/07/10 02:26:40;;;;;;;1.73;1.63;;;;;;;23.16;68.02;101401.44;5251829;28;20082;-87
2023/07/10 02:29:31;;;;;;;1.90;1.35;;;;;;;23.21;67.23;101408.22;5240759;28;20023;-86
2023/07/10 02:32:22;;;;;;;1.73;1.38;;;;;;;23.26;67.56;101419.47;5232156;28;20111;-86
2023/07/10 02:35:13;;;;;;;2.97;2.53;;;;;;;22.94;70.09;101417.16;5233602;28;20047;-86
2023/07/10 02:38:04;;;;;;;1.58;1.48;;;;;;;23.09;68.62;101415.25;5235386;28;20024;-86
2023/07/10 02:40:55;;;;;;;2.00;1.88;;;;;;;23.12;68.11;101427.56;5246588;28;20384;-87
2023/07/10 02:43:46;;;;;;;1.25;1.02;;;;;;;23.18;67.46;101429.00;5231438;28;20051;-86
2023/07/10 02:46:37;;;;;;;1.73;1.48;;;;;;;23.02;68.49;101426.47;5229999;28;20032;-85
2023/07/10 02:49:28;;;;;;;1.85;1.67;;;;;;;23.11;67.93;101428.53;5230350;28;20027;-86
2023/07/10 02:52:18;;;;;;;3.70;2.65;;;;;;;22.88;69.71;101420.28;5234687;28;20435;-86
2023/07/10 02:55:09;;;;;;;1.15;1.08;;;;;;;23.04;68.01;101425.44;5233601;28;20028;-85
2023/07/10 02:58:02;;;;;;;2.08;1.88;;;;;;;23.06;67.93;101423.50;5248274;28;20032;-86
2023/07/10 03:01:01;;;;;;;1.73;1.63;;;;;;;23.01;67.63;101430.16;5234507;28;20120;-88
2023/07/10 03:03:52;;;;;;;1.33;1.23;;;;;;;22.82;69.57;101420.69;5261878;28;20036;-86
2023/07/10 03:06:42;;;;;;;2.22;1.98;;;;;;;22.62;69.99;101417.53;5247594;28;20027;-87
2023/07/10 03:09:33;;;;;;;1.73;1.60;;;;;;;22.74;68.83;101417.69;5248015;28;20563;-86
2023/07/10 03:12:25;;;;;;;1.33;1.23;;;;;;;22.62;70.66;101425.56;5262225;28;20036;-86
2023/07/10 03:15:16;;;;;;;1.85;1.75;;;;;;;22.84;68.26;101434.84;5226296;28;20035;-86
2023/07/10 03:18:06;;;;;;;3.78;1.95;;;;;;;22.77;68.76;101433.50;5258783;28;20037;-86
2023/07/10 03:20:57;;;;;;;1.92;1.83;;;;;;;22.69;69.11;101428.69;5229699;28;20036;-87
2023/07/10 03:23:49;;;;;;;8.98;2.17;;;;;;;22.79;68.06;101426.25;5247739;28;20036;-86
2023/07/10 03:26:41;;;;;;;11.00;3.13;;;;;;;22.77;68.34;101423.69;5257130;28;20024;-88
2023/07/10 03:29:32;;;;;;;8.10;2.15;;;;;;;22.53;70.07;101434.19;5238604;28;20554;-86
2023/07/10 03:32:23;;;;;;;1.75;1.65;;;;;;;22.38;70.74;101435.19;5230890;28;20127;-86
2023/07/10 03:35:13;;;;;;;2.33;1.70;;;;;;;22.62;68.37;101436.25;5244887;28;20113;-87
2023/07/10 03:38:04;;;;;;;1.50;1.27;;;;;;;22.62;68.56;101430.06;5227297;28;20534;-86
2023/07/10 03:40:56;;;;;;;2.10;1.65;;;;;;;22.72;67.84;101427.63;5230513;28;20077;-86
2023/07/10 03:43:48;;;;;;;2.60;1.40;;;;;;;22.69;67.82;101435.84;5241861;28;20024;-86
2023/07/10 03:46:39;;;;;;;2.83;1.90;;;;;;;22.17;69.54;101427.63;5249988;28;20491;-86
2023/07/10 03:49:30;;;;;;;1.65;1.55;;;;;;;22.36;69.43;101437.09;5245552;28;20032;-87
2023/07/10 03:52:20;;;;;;;4.72;2.05;;;;;;;22.27;69.69;101436.75;5229215;28;20035;-86
2023/07/10 03:55:11;;;;;;;1.83;1.33;;;;;;;22.43;68.45;101438.47;5230846;28;20035;-86
2023/07/10 03:58:15;;;;;;;1.65;1.48;;;;;;;22.33;68.35;101436.34;5235380;28;21060;-87
2023/07/10 04:01:07;;;;;;;0.95;0.90;;;;;;;22.22;69.30;101441.53;5264388;28;20111;-86
2023/07/10 04:03:58;;;;;;;1.45;1.35;;;;;;;22.45;67.72;101450.75;5260993;28;20039;-86
2023/07/10 04:06:49;;;;;;;2.22;0.70;;;;;;;22.50;67.02;101446.91;5262507;28;20063;-86
2023/07/10 04:09:39;;;;;;;4.97;1.05;;;;;;;22.47;68.19;101469.38;5249028;28;20029;-86
2023/07/10 04:12:30;;;;;;;0.68;0.68;;;;;;;22.40;67.21;101468.91;5238724;28;20131;-87
2023/07/10 04:15:21;;;;;;;10.27;0.98;;;;;;;22.46;66.73;101475.66;5241712;28;20078;-86
2023/07/10 04:18:12;;;;;;;0.90;0.90;;;;;;;22.30;66.92;101476.66;5267790;28;20019;-90
2023/07/10 04:21:06;;;;;;;2.13;1.95;;;;;;;22.40;66.72;101473.41;5255411;28;20058;-86
2023/07/10 04:23:57;;;;;;;0.65;0.65;;;;;;;22.34;66.74;101471.97;5243498;28;20475;-86
2023/07/10 04:26:48;;;;;;;0.90;0.70;;;;;;;22.34;66.62;101466.59;5237714;28;20399;-86
2023/07/10 04:29:39;;;;;;;2.05;1.17;;;;;;;22.32;67.41;101472.06;5234264;28;20562;-87
2023/07/10 04:32:29;;;;;;;1.52;0.68;;;;;;;22.18;67.34;101477.44;5230219;28;20028;-86
2023/07/10 04:35:20;;;;;;;1.25;1.15;;;;;;;22.35;67.11;101476.34;5244737;28;20530;-86
2023/07/10 04:38:13;;;;;;;2.13;0.90;;;;;;;22.24;67.66;101479.72;5248237;28;20028;-86
2023/07/10 04:41:06;;;;;;;5.07;2.97;;;;;;;22.25;66.90;101475.22;5246444;28;20108;-87
2023/07/10 04:43:57;;;;;;;0.85;0.85;;;;;;;22.27;66.81;101479.50;5260057;28;20035;-88
2023/07/10 04:46:48;;;;;;;0.63;0.63;;;;;;;22.19;66.94;101475.63;5246031;28;20503;-86
2023/07/10 04:49:39;;;;;;;0.57;0.57;;;;;;;21.89;69.13;101479.31;5248900;28;20036;-87
2023/07/10 04:52:30;;;;;;;0.40;0.40;;;;;;;22.19;66.40;101492.50;5234827;28;20106;-86
2023/07/10 04:55:20;;;;;;;0.63;0.63;;;;;;;22.17;66.98;101491.78;5237132;28;20067;-86
2023/07/10 04:58:11;;;;;;;2.30;1.38;;;;;;;22.07;67.11;101488.81;5232970;28;20028;-86
2023/07/10 05:01:02;;;;;;;2.90;2.05;;;;;;;22.25;66.20;101494.81;5241268;28;20050;-87
2023/07/10 05:03:53;;;;;;;2.90;1.60;;;;;;;22.18;66.32;101490.81;5244364;28;20043;-86
2023/07/10 05:06:44;;;;;;;2.65;1.38;;;;;;;22.27;66.14;101500.88;5230957;28;20024;-86
2023/07/10 05:09:35;;;;;;;0.50;0.50;;;;;;;22.20;66.19;101501.41;5248612;28;20033;-86
2023/07/10 05:12:26;;;;;;;2.20;1.40;;;;;;;22.06;67.80;101510.28;5235601;28;20024;-86
2023/07/10 05:15:16;;;;;;;0.40;0.40;;;;;;;22.08;66.98;101501.22;5242463;28;20036;-87
2023/07/10 05:18:07;;;;;;;0.77;0.77;;;;;;;22.04;66.99;101502.38;5230871;28;20191;-86
2023/07/10 05:20:59;;;;;;;1.08;1.08;;;;;;;22.13;66.50;101514.28;5240136;28;20097;-87
2023/07/10 05:23:50;;;;;;;0.30;0.30;;;;;;;22.21;65.87;101511.13;5230054;28;20036;-86
2023/07/10 05:26:40;;;;;;;0.73;0.73;;;;;;;22.11;66.36;101511.72;5253271;28;20035;-86
2023/07/10 05:29:31;;;;;;;0.77;0.77;;;;;;;21.87;67.90;101519.44;5260581;28;20759;-86
2023/07/10 05:32:22;;;;;;;0.47;0.47;;;;;;;22.06;66.88;101512.97;5233825;28;20020;-86
2023/07/10 05:35:13;;;;;;;2.00;1.15;;;;;;;22.09;65.93;101515.44;5232461;28;20097;-86
2023/07/10 05:38:03;;;;;;;1.15;0.75;;;;;;;22.07;66.37;101522.69;5251127;28;20032;-87
2023/07/10 05:40:55;;;;;;;3.05;1.17;;;;;;;21.85;67.89;101519.56;5232406;28;20322;-86
2023/07/10 05:43:45;;;;;;;0.77;0.77;;;;;;;22.01;67.08;101514.13;5247469;28;20051;-85
2023/07/10 05:46:36;;;;;;;1.48;1.23;;;;;;;21.96;67.49;101518.88;5265278;28;20028;-86
2023/07/10 05:49:27;;;;;;;1.73;1.17;;;;;;;22.09;66.42;101518.97;5242040;28;20081;-87
2023/07/10 05:52:18;;;;;;;1.60;0.95;;;;;;;22.07;66.61;101520.03;5233038;28;20635;-86
2023/07/10 05:55:09;;;;;;;0.60;0.60;;;;;;;22.15;66.37;101518.56;5244749;28;20045;-86
2023/07/10 05:57:59;;;;;;;1.23;1.13;;;;;;;21.99;67.08;101521.38;5243867;28;20072;-86
2023/07/10 06:00:54;;;;;;;1.95;1.23;;;;;;;22.14;66.73;101529.38;5233511;28;20101;-86
2023/07/10 06:03:45;;;;;;;0.93;0.90;;;;;;;22.20;66.55;101517.44;5247735;28;20052;-88
2023/07/10 06:06:36;;;;;;;0.60;0.60;;;;;;;22.16;65.96;101519.44;5237426;28;20035;-85
2023/07/10 06:09:26;;;;;;;4.65;2.72;;;;;;;22.18;66.57;101517.53;5264231;28;20033;-87
2023/07/10 06:12:17;;;;;;;2.03;0.93;;;;;;;22.11;66.62;101518.88;5245250;28;20809;-84
2023/07/10 06:15:09;;;;;;;0.70;0.60;;;;;;;22.15;66.33;101525.75;5236835;28;20040;-85
2023/07/10 06:18:00;;;;;;;0.50;0.50;;;;;;;22.13;66.69;101527.66;5235397;28;20091;-87
2023/07/10 06:20:52;;;;;;;1.85;1.02;;;;;;;22.02;66.66;101528.34;5248886;28;20039;-86
2023/07/10 06:23:43;;;;;;;0.77;0.60;;;;;;;21.65;67.77;101539.50;5267696;28;20040;-87
2023/07/10 06:26:34;;;;;;;2.45;1.17;;;;;;;21.82;67.10;101537.59;5234348;28;20107;-85
2023/07/10 06:29:24;;;;;;;1.70;0.82;;;;;;;21.97;66.88;101543.81;5249090;28;20096;-85
2023/07/10 06:32:15;;;;;;;0.63;0.63;;;;;;;21.80;67.89;101544.84;5262530;28;20088;-85
2023/07/10 06:35:06;;;;;;;11.18;1.02;;;;;;;22.02;66.71;101545.22;5259262;28;20040;-87
2023/07/10 06:37:57;;;;;;;1.17;0.85;;;;;;;22.23;65.74;101558.19;5250509;28;20055;-85
2023/07/10 06:40:49;;;;;;;0.68;0.68;;;;;;;22.07;66.17;101563.63;5251569;28;20039;-86
2023/07/10 06:43:40;;;;;;;1.35;0.73;;;;;;;22.19;65.64;101567.34;5249589;28;20032;-87
2023/07/10 06:46:31;;;;;;;4.32;1.90;;;;;;;22.14;66.41;101569.47;5265177;28;20495;-86
2023/07/10 06:49:21;;;;;;;0.45;0.45;;;;;;;22.07;66.10;101574.31;5243873;28;20028;-87
2023/07/10 06:52:12;;;;;;;0.30;0.30;;;;;;;21.84;65.71;101578.44;5232838;28;20020;-87
2023/07/10 06:55:03;;;;;;;9.13;1.40;;;;;;;21.85;65.22;101577.47;5230939;28;20047;-84
2023/07/10 06:57:54;;;;;;;0.50;0.50;;;;;;;22.01;65.27;101575.59;5256560;28;20085;-84
2023/07/10 07:00:45;;;;;;;0.40;0.40;;;;;;;22.00;64.47;101573.84;5244366;28;20036;-84
2023/07/10 07:03:36;;;;;;;1.30;0.82;;;;;;;22.15;63.99;101573.84;5242581;28;20098;-84
2023/07/10 07:06:26;;;;;;;0.65;0.65;;;;;;;22.17;63.70;101574.63;5236657;28;20057;-84
2023/07/10 07:09:17;;;;;;;0.60;0.60;;;;;;;22.25;63.72;101563.44;5229938;28;20040;-85
2023/07/10 07:12:09;;;;;;;1.42;1.33;;;;;;;22.34;63.49;101565.53;5232988;28;20024;-85
2023/07/10 07:15:00;;;;;;;0.40;0.40;;;;;;;22.20;63.78;101574.41;5240136;28;20059;-84
2023/07/10 07:17:51;;;;;;;1.60;1.15;;;;;;;21.89;64.92;101570.97;5248056;28;20035;-85
2023/07/10 07:20:41;;;;;;;0.95;0.95;;;;;;;21.92;64.78;101573.47;5246915;28;20036;-85
2023/07/10 07:23:32;;;;;;;0.55;0.47;;;;;;;21.99;64.84;101571.25;5258110;28;20090;-85
2023/07/10 07:26:26;;;;;;;0.70;0.65;;;;;;;22.05;64.86;101572.69;5229314;28;20521;-85
2023/07/10 07:29:17;;;;;;;1.05;0.95;;;;;;;22.16;64.35;101579.09;5263081;28;20038;-85
2023/07/10 07:32:11;;;;;;;0.98;0.95;;;;;;;22.20;63.94;101582.44;5235814;28;20548;-85
2023/07/10 07:35:02;;;;;;;0.40;0.35;;;;;;;22.17;64.05;101586.16;5245184;28;20066;-86
2023/07/10 07:37:53;;;;;;;8.27;1.85;;;;;;;22.13;63.62;101589.13;5241252;28;20028;-85
2023/07/10 07:40:44;;;;;;;0.98;0.88;;;;;;;22.27;63.25;101583.75;5246339;28;20032;-86
2023/07/10 07:43:35;;;;;;;7.57;1.83;;;;;;;22.15;63.36;101580.03;5241880;28;20087;-85
2023/07/10 07:46:26;;;;;;;0.30;0.30;;;;;;;22.19;63.09;101585.19;5228335;28;20090;-87
2023/07/10 07:49:17;;;;;;;0.75;0.45;;;;;;;22.20;63.11;101585.09;5244194;28;20115;-85
2023/07/10 07:52:08;;;;;;;0.60;0.60;;;;;;;22.05;62.98;101586.06;5232948;28;20047;-86
2023/07/10 07:54:59;;;;;;;0.50;0.50;;;;;;;22.07;62.51;101586.84;5245432;28;20051;-86
2023/07/10 07:57:50;;;;;;;0.20;0.20;;;;;;;22.23;62.43;101582.25;5231036;28;20042;-85
2023/07/10 08:00:41;;;;;;;1.00;0.80;;;;;;;22.23;62.23;101584.91;5243826;28;20107;-86
2023/07/10 08:03:32;;;;;;;0.22;0.22;;;;;;;22.02;61.74;101579.94;5227784;28;20066;-85
2023/07/10 08:06:31;;;;;;;0.20;0.20;;;;;;;22.04;61.44;101579.00;5247669;28;20047;-86
2023/07/10 08:09:22;;;;;;;0.40;0.40;;;;;;;22.27;61.71;101580.25;5247767;28;20115;-86
2023/07/10 08:12:13;;;;;;;0.30;0.30;;;;;;;22.30;61.44;101578.22;5229991;28;20032;-86
2023/07/10 08:15:04;;;;;;;0.30;0.30;;;;;;;22.32;59.98;101580.78;5259095;28;20148;-85
2023/07/10 08:17:55;;;;;;;0.40;0.40;;;;;;;22.32;60.80;101588.81;5263007;28;20056;-87
2023/07/10 08:20:46;;;;;;;0.25;0.25;;;;;;;22.21;58.79;101586.81;5236685;28;20047;-86
2023/07/10 08:23:38;;;;;;;1.27;1.15;;;;;;;22.13;58.95;101590.00;5259274;28;20030;-86
2023/07/10 08:26:30;;;;;;;2.65;0.90;;;;;;;22.20;59.14;101590.44;5263535;28;20020;-88
2023/07/10 08:29:34;;;;;;;0.40;0.40;;;;;;;22.32;59.16;101578.13;5249975;28;20028;-85
2023/07/10 08:32:24;;;;;;;0.20;0.20;;;;;;;22.27;58.98;101575.72;5239818;28;20028;-85
2023/07/10 08:35:15;;;;;;;0.40;0.40;;;;;;;22.26;57.72;101574.03;5229406;28;20105;-86
2023/07/10 08:38:06;;;;;;;0.73;0.73;;;;;;;22.12;56.32;101577.59;5248228;28;20112;-85
2023/07/10 08:41:04;;;;;;;0.20;0.20;;;;;;;22.24;57.39;101583.09;5247975;28;20036;-86
2023/07/10 08:43:54;;;;;;;0.20;0.20;;;;;;;22.32;56.87;101573.66;5245813;28;20418;-86
2023/07/10 08:46:46;;;;;;;1.52;0.80;;;;;;;22.28;56.50;101577.47;5234224;28;20059;-86
2023/07/10 08:49:42;;;;;;;0.20;0.20;;;;;;;22.12;55.83;101566.00;5252279;28;20060;-86
2023/07/10 08:52:46;;;;;;;0.20;0.20;;;;;;;22.29;55.37;101576.50;5231849;28;20448;-85
2023/07/10 08:55:43;;;;;;;0.30;0.30;;;;;;;22.30;54.57;101562.19;5244480;28;20434;-85
2023/07/10 08:58:36;;;;;;;0.20;0.20;;;;;;;22.19;52.66;101562.00;5267162;28;20042;-86
2023/07/10 09:01:34;;;;;;;0.20;0.20;;;;;;;21.85;52.32;101569.47;5246235;28;20084;-85
2023/07/10 09:04:26;;;;;;;0.70;0.70;;;;;;;22.02;53.76;101571.94;5266878;28;20040;-85
2023/07/10 09:07:19;;;;;;;1.98;0.30;;;;;;;21.98;52.68;101569.56;5240113;28;20112;-84
2023/07/10 09:10:18;;;;;;;0.10;0.10;;;;;;;22.05;53.23;101573.56;5238271;28;20040;-85
2023/07/10 09:13:24;;;;;;;0.40;0.40;;;;;;;22.20;53.40;101569.06;5235289;28;20031;-85
2023/07/10 09:16:18;;;;;;;0.40;0.40;;;;;;;22.26;53.48;101582.06;5243377;28;20096;-85
2023/07/10 09:19:18;;;;;;;0.40;0.40;;;;;;;22.25;53.60;101568.78;5228425;28;20047;-86
2023/07/10 09:22:10;;;;;;;3.63;0.95;;;;;;;22.31;54.32;101571.94;5249096;28;20032;-86
2023/07/10 09:25:01;;;;;;;0.15;0.15;;;;;;;22.40;52.59;101580.34;5253604;28;20036;-86
2023/07/10 09:27:53;;;;;;;0.40;0.40;;;;;;;22.44;51.55;101571.16;5237593;28;20103;-86
2023/07/10 09:30:59;;;;;;;0.22;0.22;;;;;;;22.45;52.71;101567.53;5251197;28;20407;-85
2023/07/10 09:33:59;;;;;;;0.20;0.20;;;;;;;22.39;52.20;101570.56;5252523;28;20141;-86
2023/07/10 09:36:55;;;;;;;0.25;0.25;;;;;;;22.56;51.70;101564.19;5255826;28;20028;-86
2023/07/10 09:39:46;;;;;;;0.47;0.47;;;;;;;22.55;52.15;101562.47;5237732;28;20052;-88
2023/07/10 09:42:37;;;;;;;0.30;0.30;;;;;;;22.58;52.80;101559.59;5241123;28;20040;-86
2023/07/10 09:45:34;;;;;;;0.35;0.35;;;;;;;22.64;53.06;101559.22;5254475;28;20399;-85
2023/07/10 09:48:25;;;;;;;1.00;0.90;;;;;;;22.64;53.14;101573.44;5269783;28;20031;-85
2023/07/10 09:51:17;;;;;;;0.50;0.50;;;;;;;22.72;52.67;101575.63;5237115;28;20036;-85
2023/07/10 09:54:14;;;;;;;0.55;0.55;;;;;;;22.77;51.07;101567.25;5237605;28;20090;-86
2023/07/10 09:57:15;;;;;;;0.30;0.30;;;;;;;22.82;51.36;101564.28;5239750;28;20038;-85
2023/07/10 10:00:16;;;;;;;0.40;0.40;;;;;;;22.82;51.43;101562.50;5229979;28;20558;-85
2023/07/10 10:03:21;;;;;;;0.40;0.40;;;;;;;22.88;51.99;101563.91;5234974;28;20028;-86
2023/07/10 10:06:21;;;;;;;1.65;0.68;;;;;;;23.00;51.55;101559.56;5237100;28;20096;-85
2023/07/10 10:09:22;;;;;;;0.20;0.20;;;;;;;23.04;51.17;101558.38;5237390;28;20376;-85
2023/07/10 10:12:24;;;;;;;2.00;0.82;;;;;;;23.02;50.93;101562.97;5247924;28;20106;-87
2023/07/10 10:15:23;;;;;;;0.65;0.65;;;;;;;23.03;53.37;101560.22;5235344;28;20040;-87
2023/07/10 10:18:30;;;;;;;0.30;0.30;;;;;;;23.04;51.80;101566.41;5274596;28;20079;-88
2023/07/10 10:21:22;;;;;;;0.22;0.22;;;;;;;23.01;52.98;101561.28;5241904;28;20103;-88
2023/07/10 10:24:13;;;;;;;0.20;0.20;;;;;;;23.14;52.30;101559.47;5243992;28;20047;-88
2023/07/10 10:27:21;;;;;;;2.33;0.85;;;;;;;23.24;52.17;101560.63;5250567;28;20019;-87
2023/07/10 10:30:25;;;;;;;0.55;0.55;;;;;;;23.31;52.23;101560.19;5272547;28;20062;-89
2023/07/10 10:33:38;;;;;;;0.35;0.35;;;;;;;23.42;52.45;101555.81;5271991;28;20105;-87
2023/07/10 10:36:55;;;;;;;0.47;0.47;;;;;;;23.51;51.88;101561.50;5266124;28;20062;-89
2023/07/10 10:40:11;;;;;;;0.20;0.20;;;;;;;23.53;51.75;101557.75;5240578;28;20039;-88
2023/07/10 10:43:20;;;;;;;0.52;0.52;;;;;;;23.70;52.11;101561.09;5235668;28;20029;-88
2023/07/10 10:46:21;;;;;;;0.40;0.40;;;;;;;23.72;50.68;101553.81;5233170;28;20724;-87
2023/07/10 10:49:24;;;;;;;3.20;1.55;;;;;;;23.69;50.44;101552.22;5235026;28;20040;-88
2023/07/10 10:52:30;;;;;;;0.30;0.30;;;;;;;23.79;50.23;101560.44;5249968;28;20054;-87
2023/07/10 10:55:39;;;;;;;0.20;0.20;;;;;;;23.82;49.88;101544.16;5232884;28;20119;-87
2023/07/10 10:58:35;;;;;;;1.20;1.10;;;;;;;23.90;50.32;101546.28;5246603;28;20032;-88
2023/07/10 11:01:35;;;;;;;0.68;0.68;;;;;;;24.03;50.18;101547.19;5233183;28;20470;-88
2023/07/10 11:04:38;;;;;;;0.28;0.28;;;;;;;23.97;49.26;101546.75;5237202;28;20040;-87
2023/07/10 11:07:31;;;;;;;2.42;1.55;;;;;;;23.99;49.81;101551.03;5263476;28;20034;-88
2023/07/10 11:10:26;;;;;;;;;;;;;;;24.22;49.18;101545.00;5249498;28;20028;-88
2023/07/10 11:13:29;;;;;;;0.30;0.30;;;;;;;24.29;47.96;101543.59;5238184;28;19907;-88
2023/07/10 11:16:19;;;;;;;0.20;0.20;;;;;;;24.32;48.44;101538.00;5233734;28;20051;-88
2023/07/10 11:19:24;;;;;;;0.73;0.73;;;;;;;24.34;45.67;101533.38;5236972;28;20063;-88
2023/07/10 11:22:31;;;;;;;1.40;1.30;;;;;;;24.51;45.67;101534.84;5235964;28;20023;-89
2023/07/10 11:25:35;;;;;;;0.50;0.50;;;;;;;24.56;46.15;101540.69;5246508;28;20056;-89
2023/07/10 11:28:26;;;;;;;;;;;;;;;24.70;45.45;101539.72;5233407;28;20429;-89
2023/07/10 11:31:30;;;;;;;0.38;0.38;;;;;;;24.58;45.93;101533.41;5232867;28;20311;-88
2023/07/10 11:34:30;;;;;;;0.43;0.40;;;;;;;24.63;45.38;101546.47;5248656;28;20040;-89
2023/07/10 11:37:45;;;;;;;10.13;2.25;;;;;;;24.90;45.30;101535.53;5232310;28;20073;-89
2023/07/10 11:40:37;;;;;;;0.35;0.35;;;;;;;24.95;43.79;101535.19;5246793;28;20031;-88
2023/07/10 11:43:27;;;;;;;0.30;0.30;;;;;;;24.99;44.52;101539.38;5263471;28;20028;-89
2023/07/10 11:46:25;;;;;;;0.80;0.80;;;;;;;25.10;44.99;101530.50;5233366;28;20036;-89
2023/07/10 11:49:17;;;;;;;0.50;0.50;;;;;;;25.01;45.28;101541.94;5231577;28;20063;-88
2023/07/10 11:52:13;;;;;;;0.40;0.40;;;;;;;25.05;45.23;101543.41;5233846;28;20487;-88
2023/07/10 11:55:12;;;;;;;0.20;0.20;;;;;;;25.18;45.85;101543.31;5230374;28;20064;-89
2023/07/10 11:58:41;;;;;;;0.52;0.40;;;;;;;25.25;45.22;101539.19;5250936;28;20035;-88
2023/07/10 12:01:33;;;;;;;0.70;0.70;;;;;;;25.47;45.25;101535.75;5184178;28;20097;-89
2023/07/10 12:04:26;;;;;;;0.10;0.10;;;;;;;25.57;44.98;101533.22;5198832;28;20037;-89
2023/07/10 12:07:17;;;;;;;0.50;0.50;;;;;;;25.64;43.43;101528.19;5244870;28;20169;-89
2023/07/10 12:10:11;;;;;;;0.30;0.30;;;;;;;25.61;44.07;101535.53;5248955;28;20028;-88
2023/07/10 12:13:13;;;;;;;0.30;0.30;;;;;;;25.96;43.01;101536.41;5246401;28;20040;-86
2023/07/10 12:16:12;;;;;;;0.85;0.28;;;;;;;25.95;42.39;101536.53;5232001;28;20044;-88
2023/07/10 12:19:13;;;;;;;0.47;0.30;;;;;;;25.90;43.01;101529.69;5244333;28;20681;-88
2023/07/10 12:22:16;;;;;;;0.20;0.20;;;;;;;25.92;42.38;101516.09;5241245;28;20587;-88
2023/07/10 12:25:13;;;;;;;0.20;0.20;;;;;;;25.89;42.36;101521.75;5244327;28;20032;-88
2023/07/10 12:28:13;;;;;;;0.35;0.35;;;;;;;25.96;44.26;101514.91;5233334;28;20034;-88
2023/07/10 12:31:12;;;;;;;0.35;0.35;;;;;;;26.17;42.42;101508.78;5232826;28;20043;-87
2023/07/10 12:34:03;;;;;;;1.05;0.52;;;;;;;26.27;42.11;101511.59;5233035;28;20381;-88
2023/07/10 12:36:55;;;;;;;0.22;0.22;;;;;;;26.50;42.61;101510.56;5234578;28;20143;-88
2023/07/10 12:39:51;;;;;;;0.40;0.40;;;;;;;26.33;40.65;101509.25;5230978;28;20043;-88
2023/07/10 12:42:44;;;;;;;0.45;0.45;;;;;;;26.28;42.86;101505.25;5235623;28;20031;-88
2023/07/10 12:45:36;;;;;;;0.20;0.20;;;;;;;26.34;42.92;101505.56;5235565;28;20024;-87
2023/07/10 12:48:31;;;;;;;0.65;0.65;;;;;;;26.40;43.53;101494.31;5235771;28;20036;-88
2023/07/10 12:51:28;;;;;;;0.10;0.10;;;;;;;26.48;42.58;101501.75;5235810;28;20020;-88
2023/07/10 12:54:32;;;;;;;1.55;0.93;;;;;;;26.49;41.65;101497.22;5244610;28;20441;-87
2023/07/10 12:57:28;;;;;;;0.45;0.45;;;;;;;26.46;42.58;101497.50;5234845;28;20032;-87
2023/07/10 13:00:20;;;;;;;0.43;0.43;;;;;;;26.39;40.94;101494.44;5229940;28;20032;-87
2023/07/10 13:03:28;;;;;;;0.22;0.22;;;;;;;26.46;41.96;101498.31;5234673;28;20031;-87
2023/07/10 13:06:18;;;;;;;0.63;0.63;;;;;;;26.36;42.10;101498.25;5254328;28;20115;-88
2023/07/10 13:09:21;;;;;;;4.65;0.30;;;;;;;26.40;42.54;101499.69;5258593;28;20039;-89
2023/07/10 13:12:20;;;;;;;0.55;0.40;;;;;;;26.46;43.03;101492.94;5269591;28;20204;-90
2023/07/10 13:15:12;;;;;;;0.50;0.50;;;;;;;26.46;42.70;101492.94;5276362;28;20025;-88
2023/07/10 13:18:05;;;;;;;0.25;0.20;;;;;;;26.39;42.83;101491.75;5247137;28;20032;-88
2023/07/10 13:20:56;;;;;;;0.88;0.50;;;;;;;26.45;41.89;101485.00;5265699;28;20071;-87
2023/07/10 13:23:48;;;;;;;1.38;0.80;;;;;;;26.57;41.32;101478.59;5244413;28;20082;-88
2023/07/10 13:26:39;;;;;;;1.13;1.02;;;;;;;26.59;40.38;101473.94;5239076;28;20334;-88
2023/07/10 13:29:30;;;;;;;0.20;0.20;;;;;;;26.60;39.67;101475.66;5246816;28;20047;-88
2023/07/10 13:32:21;;;;;;;0.70;0.70;;;;;;;26.54;40.69;101476.19;5233695;28;20104;-89